sensor_id;sensor_type;location;lat;lon;timestamp;P1;durP1;ratioP1;P2;durP2;ratioP2
78004;SDS011;67209;51.698;-0.292;2023-06-04T00:00:50;9.88;;;2.20;;
78004;SDS011;67209;51.698;-0.292;2023-06-04T00:03:16;6.32;;;2.28;;
78004;SDS011;67209;51.698;-0.292;2023-06-04T00:05:42;5.55;;;2.20;;
78004;SDS011;67209;51.698;-0.292;2023-06-04T00:08:08;8.57;;;2.65;;
78004;SDS011;67209;51.698;-0.292;2023-06-04T00:10:34;6.78;;;2.35;;
78004;SDS011;67209;51.698;-0.292;2023-06-04T00:13:02;10.02;;;2.65;;
78004;SDS011;67209;51.698;-0.292;2023-06-04T00:15:28;6.68;;;2.00;;
78004;SDS011;67209;51.698;-0.292;2023-06-04T00:17:54;7.40;;;2.70;;
78004;SDS011;67209;51.698;-0.292;2023-06-04T00:20:21;9.75;;;2.50;;
78004;SDS011;67209;51.698;-0.292;2023-06-04T00:22:47;9.48;;;2.88;;
78004;SDS011;67209;51.698;-0.292;2023-06-04T00:25:13;7.57;;;2.53;;
78004;SDS011;67209;51.698;-0.292;2023-06-04T00:27:39;7.35;;;2.70;;
78004;SDS011;67209;51.698;-0.292;2023-06-04T00:30:05;6.15;;;2.50;;
78004;SDS011;67209;51.698;-0.292;2023-06-04T00:32:31;10.10;;;2.78;;
78004;SDS011;67209;51.698;-0.292;2023-06-04T00:34:57;6.85;;;2.30;;
78004;SDS011;67209;51.698;-0.292;2023-06-04T00:37:24;5.05;;;2.13;;
78004;SDS011;67209;51.698;-0.292;2023-06-04T00:39:50;6.20;;;2.53;;
78004;SDS011;67209;51.698;-0.292;2023-06-04T00:42:16;9.57;;;3.10;;
78004;SDS011;67209;51.698;-0.292;2023-06-04T00:44:44;6.03;;;2.10;;
78004;SDS011;67209;51.698;-0.292;2023-06-04T00:47:14;7.88;;;2.85;;
78004;SDS011;67209;51.698;-0.292;2023-06-04T00:49:40;7.30;;;2.97;;
78004;SDS011;67209;51.698;-0.292;2023-06-04T00:52:07;10.68;;;2.97;;
78004;SDS011;67209;51.698;-0.292;2023-06-04T00:54:34;8.70;;;2.72;;
78004;SDS011;67209;51.698;-0.292;2023-06-04T00:57:00;7.15;;;2.60;;
78004;SDS011;67209;51.698;-0.292;2023-06-04T00:59:26;10.23;;;3.15;;
78004;SDS011;67209;51.698;-0.292;2023-06-04T01:02:03;10.55;;;3.03;;
78004;SDS011;67209;51.698;-0.292;2023-06-04T01:04:32;8.05;;;2.53;;
78004;SDS011;67209;51.698;-0.292;2023-06-04T01:07:02;7.82;;;2.92;;
78004;SDS011;67209;51.698;-0.292;2023-06-04T01:09:29;9.50;;;2.65;;
78004;SDS011;67209;51.698;-0.292;2023-06-04T01:11:58;7.88;;;2.92;;
78004;SDS011;67209;51.698;-0.292;2023-06-04T01:14:26;7.30;;;3.03;;
78004;SDS011;67209;51.698;-0.292;2023-06-04T01:24:52;8.95;;;3.10;;
78004;SDS011;67209;51.698;-0.292;2023-06-04T01:27:20;8.60;;;3.30;;
78004;SDS011;67209;51.698;-0.292;2023-06-04T01:29:46;10.98;;;2.97;;
78004;SDS011;67209;51.698;-0.292;2023-06-04T01:32:15;11.00;;;3.65;;
78004;SDS011;67209;51.698;-0.292;2023-06-04T01:34:44;9.45;;;3.28;;
78004;SDS011;67209;51.698;-0.292;2023-06-04T01:37:10;10.65;;;3.00;;
78004;SDS011;67209;51.698;-0.292;2023-06-04T01:39:37;10.90;;;3.45;;
78004;SDS011;67209;51.698;-0.292;2023-06-04T01:42:03;12.15;;;3.58;;
78004;SDS011;67209;51.698;-0.292;2023-06-04T01:44:29;7.43;;;2.78;;
78004;SDS011;67209;51.698;-0.292;2023-06-04T01:46:55;11.65;;;3.90;;
78004;SDS011;67209;51.698;-0.292;2023-06-04T01:49:21;18.13;;;4.55;;
78004;SDS011;67209;51.698;-0.292;2023-06-04T01:51:47;9.85;;;3.70;;
78004;SDS011;67209;51.698;-0.292;2023-06-04T01:54:13;14.27;;;3.85;;
78004;SDS011;67209;51.698;-0.292;2023-06-04T01:56:39;9.35;;;3.20;;
78004;SDS011;67209;51.698;-0.292;2023-06-04T01:59:05;11.57;;;3.58;;
78004;SDS011;67209;51.698;-0.292;2023-06-04T02:01:32;11.50;;;3.85;;
78004;SDS011;67209;51.698;-0.292;2023-06-04T02:03:59;10.85;;;3.63;;
78004;SDS011;67209;51.698;-0.292;2023-06-04T02:06:25;11.25;;;3.00;;
78004;SDS011;67209;51.698;-0.292;2023-06-04T02:08:54;7.95;;;3.13;;
78004;SDS011;67209;51.698;-0.292;2023-06-04T02:11:20;10.13;;;3.10;;
78004;SDS011;67209;51.698;-0.292;2023-06-04T02:13:47;9.15;;;3.00;;
78004;SDS011;67209;51.698;-0.292;2023-06-04T02:16:13;9.45;;;3.40;;
78004;SDS011;67209;51.698;-0.292;2023-06-04T02:18:39;11.57;;;3.65;;
78004;SDS011;67209;51.698;-0.292;2023-06-04T02:21:06;12.40;;;3.58;;
78004;SDS011;67209;51.698;-0.292;2023-06-04T02:23:32;12.43;;;4.18;;
78004;SDS011;67209;51.698;-0.292;2023-06-04T02:25:58;13.82;;;3.95;;
78004;SDS011;67209;51.698;-0.292;2023-06-04T02:28:24;12.88;;;3.65;;
78004;SDS011;67209;51.698;-0.292;2023-06-04T02:30:51;11.50;;;3.40;;
78004;SDS011;67209;51.698;-0.292;2023-06-04T02:33:17;10.85;;;3.92;;
78004;SDS011;67209;51.698;-0.292;2023-06-04T02:35:43;11.60;;;3.42;;
78004;SDS011;67209;51.698;-0.292;2023-06-04T02:38:09;10.40;;;3.67;;
78004;SDS011;67209;51.698;-0.292;2023-06-04T02:40:35;10.23;;;3.65;;
78004;SDS011;67209;51.698;-0.292;2023-06-04T02:43:01;8.70;;;3.05;;
78004;SDS011;67209;51.698;-0.292;2023-06-04T02:45:27;11.48;;;4.00;;
78004;SDS011;67209;51.698;-0.292;2023-06-04T02:47:53;13.80;;;3.53;;
78004;SDS011;67209;51.698;-0.292;2023-06-04T02:50:19;11.07;;;3.42;;
78004;SDS011;67209;51.698;-0.292;2023-06-04T02:52:45;11.55;;;3.58;;
78004;SDS011;67209;51.698;-0.292;2023-06-04T02:55:13;15.45;;;4.60;;
78004;SDS011;67209;51.698;-0.292;2023-06-04T02:57:39;13.52;;;4.38;;
78004;SDS011;67209;51.698;-0.292;2023-06-04T03:00:06;11.88;;;4.00;;
78004;SDS011;67209;51.698;-0.292;2023-06-04T03:02:40;13.23;;;3.30;;
78004;SDS011;67209;51.698;-0.292;2023-06-04T03:05:08;10.75;;;3.60;;
78004;SDS011;67209;51.698;-0.292;2023-06-04T03:07:35;14.02;;;3.72;;
78004;SDS011;67209;51.698;-0.292;2023-06-04T03:10:01;11.50;;;3.90;;
78004;SDS011;67209;51.698;-0.292;2023-06-04T03:12:28;11.13;;;3.83;;
78004;SDS011;67209;51.698;-0.292;2023-06-04T03:14:55;10.95;;;3.95;;
78004;SDS011;67209;51.698;-0.292;2023-06-04T03:17:21;11.57;;;4.10;;
78004;SDS011;67209;51.698;-0.292;2023-06-04T03:19:47;14.07;;;3.90;;
78004;SDS011;67209;51.698;-0.292;2023-06-04T03:22:13;10.23;;;3.95;;
78004;SDS011;67209;51.698;-0.292;2023-06-04T03:24:40;10.95;;;3.58;;
78004;SDS011;67209;51.698;-0.292;2023-06-04T03:27:07;14.85;;;3.45;;
78004;SDS011;67209;51.698;-0.292;2023-06-04T03:29:33;13.90;;;3.85;;
78004;SDS011;67209;51.698;-0.292;2023-06-04T03:32:00;12.02;;;4.43;;
78004;SDS011;67209;51.698;-0.292;2023-06-04T03:34:26;15.40;;;4.63;;
78004;SDS011;67209;51.698;-0.292;2023-06-04T03:36:55;16.40;;;4.40;;
78004;SDS011;67209;51.698;-0.292;2023-06-04T03:39:21;14.45;;;4.72;;
78004;SDS011;67209;51.698;-0.292;2023-06-04T03:41:47;18.23;;;4.38;;
78004;SDS011;67209;51.698;-0.292;2023-06-04T03:44:17;16.65;;;3.95;;
78004;SDS011;67209;51.698;-0.292;2023-06-04T03:46:43;9.40;;;3.72;;
78004;SDS011;67209;51.698;-0.292;2023-06-04T03:49:10;14.35;;;4.25;;
78004;SDS011;67209;51.698;-0.292;2023-06-04T03:51:36;13.75;;;4.78;;
78004;SDS011;67209;51.698;-0.292;2023-06-04T03:54:02;15.77;;;4.75;;
78004;SDS011;67209;51.698;-0.292;2023-06-04T03:56:29;13.52;;;4.68;;
78004;SDS011;67209;51.698;-0.292;2023-06-04T03:58:55;15.00;;;5.60;;
78004;SDS011;67209;51.698;-0.292;2023-06-04T04:01:24;14.50;;;4.90;;
78004;SDS011;67209;51.698;-0.292;2023-06-04T04:03:51;11.18;;;3.70;;
78004;SDS011;67209;51.698;-0.292;2023-06-04T04:06:17;11.57;;;3.78;;
78004;SDS011;67209;51.698;-0.292;2023-06-04T04:08:43;15.52;;;3.70;;
78004;SDS011;67209;51.698;-0.292;2023-06-04T04:11:13;10.20;;;3.13;;
78004;SDS011;67209;51.698;-0.292;2023-06-04T04:13:39;14.68;;;4.80;;
78004;SDS011;67209;51.698;-0.292;2023-06-04T04:16:05;11.95;;;3.50;;
78004;SDS011;67209;51.698;-0.292;2023-06-04T04:18:34;11.25;;;3.47;;
78004;SDS011;67209;51.698;-0.292;2023-06-04T04:21:01;13.30;;;4.40;;
78004;SDS011;67209;51.698;-0.292;2023-06-04T04:23:28;11.70;;;4.15;;
78004;SDS011;67209;51.698;-0.292;2023-06-04T04:25:54;12.98;;;4.45;;
78004;SDS011;67209;51.698;-0.292;2023-06-04T04:28:21;19.05;;;3.67;;
78004;SDS011;67209;51.698;-0.292;2023-06-04T04:30:47;12.13;;;3.88;;
78004;SDS011;67209;51.698;-0.292;2023-06-04T04:33:14;20.60;;;6.15;;
78004;SDS011;67209;51.698;-0.292;2023-06-04T04:35:41;15.15;;;4.75;;
78004;SDS011;67209;51.698;-0.292;2023-06-04T04:38:09;11.45;;;3.47;;
78004;SDS011;67209;51.698;-0.292;2023-06-04T04:40:35;15.48;;;5.20;;
78004;SDS011;67209;51.698;-0.292;2023-06-04T04:43:01;9.63;;;3.55;;
78004;SDS011;67209;51.698;-0.292;2023-06-04T04:45:27;17.50;;;5.03;;
78004;SDS011;67209;51.698;-0.292;2023-06-04T04:47:54;14.18;;;5.15;;
78004;SDS011;67209;51.698;-0.292;2023-06-04T04:50:20;15.88;;;4.47;;
78004;SDS011;67209;51.698;-0.292;2023-06-04T04:52:46;15.10;;;5.28;;
78004;SDS011;67209;51.698;-0.292;2023-06-04T04:55:12;14.82;;;4.88;;
78004;SDS011;67209;51.698;-0.292;2023-06-04T04:57:38;14.98;;;4.82;;
78004;SDS011;67209;51.698;-0.292;2023-06-04T05:00:05;10.98;;;4.28;;
78004;SDS011;67209;51.698;-0.292;2023-06-04T05:02:32;15.38;;;4.78;;
78004;SDS011;67209;51.698;-0.292;2023-06-04T05:04:58;16.13;;;3.55;;
78004;SDS011;67209;51.698;-0.292;2023-06-04T05:07:24;11.95;;;3.95;;
78004;SDS011;67209;51.698;-0.292;2023-06-04T05:09:51;10.38;;;4.05;;
78004;SDS011;67209;51.698;-0.292;2023-06-04T05:12:17;11.65;;;3.75;;
78004;SDS011;67209;51.698;-0.292;2023-06-04T05:14:43;13.90;;;4.53;;
78004;SDS011;67209;51.698;-0.292;2023-06-04T05:17:09;16.80;;;4.85;;
78004;SDS011;67209;51.698;-0.292;2023-06-04T05:19:36;11.43;;;3.97;;
78004;SDS011;67209;51.698;-0.292;2023-06-04T05:22:03;11.40;;;4.32;;
78004;SDS011;67209;51.698;-0.292;2023-06-04T05:24:30;17.58;;;4.72;;
78004;SDS011;67209;51.698;-0.292;2023-06-04T05:26:57;10.23;;;5.20;;
78004;SDS011;67209;51.698;-0.292;2023-06-04T05:29:23;10.20;;;4.45;;
78004;SDS011;67209;51.698;-0.292;2023-06-04T05:31:50;12.32;;;4.57;;
78004;SDS011;67209;51.698;-0.292;2023-06-04T05:34:16;10.85;;;3.97;;
78004;SDS011;67209;51.698;-0.292;2023-06-04T05:36:43;15.13;;;4.95;;
78004;SDS011;67209;51.698;-0.292;2023-06-04T05:39:09;13.68;;;4.57;;
78004;SDS011;67209;51.698;-0.292;2023-06-04T05:41:35;8.82;;;3.50;;
78004;SDS011;67209;51.698;-0.292;2023-06-04T05:44:02;6.00;;;3.08;;
78004;SDS011;67209;51.698;-0.292;2023-06-04T05:46:28;7.00;;;3.70;;
78004;SDS011;67209;51.698;-0.292;2023-06-04T05:48:54;8.85;;;4.25;;
78004;SDS011;67209;51.698;-0.292;2023-06-04T05:51:20;13.43;;;4.25;;
78004;SDS011;67209;51.698;-0.292;2023-06-04T05:53:46;10.40;;;4.50;;
78004;SDS011;67209;51.698;-0.292;2023-06-04T05:56:13;6.95;;;3.30;;
78004;SDS011;67209;51.698;-0.292;2023-06-04T05:58:39;10.88;;;4.13;;
78004;SDS011;67209;51.698;-0.292;2023-06-04T06:01:05;7.25;;;3.10;;
78004;SDS011;67209;51.698;-0.292;2023-06-04T06:03:31;9.60;;;3.50;;
78004;SDS011;67209;51.698;-0.292;2023-06-04T06:05:57;12.07;;;4.28;;
78004;SDS011;67209;51.698;-0.292;2023-06-04T06:08:24;8.55;;;3.50;;
78004;SDS011;67209;51.698;-0.292;2023-06-04T06:10:50;7.05;;;3.28;;
78004;SDS011;67209;51.698;-0.292;2023-06-04T06:13:17;9.82;;;3.20;;
78004;SDS011;67209;51.698;-0.292;2023-06-04T06:15:43;8.48;;;3.50;;
78004;SDS011;67209;51.698;-0.292;2023-06-04T06:18:09;9.25;;;3.17;;
78004;SDS011;67209;51.698;-0.292;2023-06-04T06:20:35;11.15;;;4.35;;
78004;SDS011;67209;51.698;-0.292;2023-06-04T06:23:07;7.88;;;2.92;;
78004;SDS011;67209;51.698;-0.292;2023-06-04T06:25:33;6.70;;;2.63;;
78004;SDS011;67209;51.698;-0.292;2023-06-04T06:27:59;4.53;;;2.33;;
78004;SDS011;67209;51.698;-0.292;2023-06-04T06:30:25;8.18;;;3.42;;
78004;SDS011;67209;51.698;-0.292;2023-06-04T06:32:51;5.78;;;2.63;;
78004;SDS011;67209;51.698;-0.292;2023-06-04T06:35:18;6.97;;;2.97;;
78004;SDS011;67209;51.698;-0.292;2023-06-04T06:37:44;8.48;;;2.83;;
78004;SDS011;67209;51.698;-0.292;2023-06-04T06:40:10;6.80;;;2.92;;
78004;SDS011;67209;51.698;-0.292;2023-06-04T06:42:36;7.57;;;3.13;;
78004;SDS011;67209;51.698;-0.292;2023-06-04T06:45:02;4.97;;;2.67;;
78004;SDS011;67209;51.698;-0.292;2023-06-04T06:47:28;5.05;;;1.65;;
78004;SDS011;67209;51.698;-0.292;2023-06-04T06:49:54;5.30;;;2.10;;
78004;SDS011;67209;51.698;-0.292;2023-06-04T06:52:20;5.78;;;2.53;;
78004;SDS011;67209;51.698;-0.292;2023-06-04T06:54:46;8.70;;;2.50;;
78004;SDS011;67209;51.698;-0.292;2023-06-04T06:57:13;6.65;;;2.20;;
78004;SDS011;67209;51.698;-0.292;2023-06-04T06:59:40;5.25;;;1.90;;
78004;SDS011;67209;51.698;-0.292;2023-06-04T07:02:07;5.85;;;1.92;;
78004;SDS011;67209;51.698;-0.292;2023-06-04T07:04:33;4.18;;;1.55;;
78004;SDS011;67209;51.698;-0.292;2023-06-04T07:06:59;7.80;;;2.40;;
78004;SDS011;67209;51.698;-0.292;2023-06-04T07:09:25;5.38;;;1.92;;
78004;SDS011;67209;51.698;-0.292;2023-06-04T07:11:51;6.90;;;2.50;;
78004;SDS011;67209;51.698;-0.292;2023-06-04T07:14:17;7.65;;;3.03;;
78004;SDS011;67209;51.698;-0.292;2023-06-04T07:16:43;5.40;;;1.95;;
78004;SDS011;67209;51.698;-0.292;2023-06-04T07:19:09;5.35;;;1.98;;
78004;SDS011;67209;51.698;-0.292;2023-06-04T07:21:35;4.50;;;1.67;;
78004;SDS011;67209;51.698;-0.292;2023-06-04T07:24:01;9.48;;;2.42;;
78004;SDS011;67209;51.698;-0.292;2023-06-04T07:26:27;5.50;;;2.13;;
78004;SDS011;67209;51.698;-0.292;2023-06-04T07:28:55;6.78;;;2.40;;
78004;SDS011;67209;51.698;-0.292;2023-06-04T07:31:22;4.55;;;2.03;;
78004;SDS011;67209;51.698;-0.292;2023-06-04T07:33:48;6.32;;;2.30;;
78004;SDS011;67209;51.698;-0.292;2023-06-04T07:36:14;4.28;;;1.67;;
78004;SDS011;67209;51.698;-0.292;2023-06-04T07:38:41;6.10;;;1.63;;
78004;SDS011;67209;51.698;-0.292;2023-06-04T07:41:07;8.65;;;2.60;;
78004;SDS011;67209;51.698;-0.292;2023-06-04T07:43:34;7.13;;;1.85;;
78004;SDS011;67209;51.698;-0.292;2023-06-04T07:46:00;6.88;;;2.45;;
78004;SDS011;67209;51.698;-0.292;2023-06-04T07:48:26;4.80;;;1.80;;
78004;SDS011;67209;51.698;-0.292;2023-06-04T07:50:58;7.63;;;2.10;;
78004;SDS011;67209;51.698;-0.292;2023-06-04T07:53:24;3.97;;;1.60;;
78004;SDS011;67209;51.698;-0.292;2023-06-04T07:55:51;6.95;;;2.17;;
78004;SDS011;67209;51.698;-0.292;2023-06-04T07:58:17;4.40;;;1.35;;
78004;SDS011;67209;51.698;-0.292;2023-06-04T08:00:43;4.28;;;1.88;;
78004;SDS011;67209;51.698;-0.292;2023-06-04T08:03:09;5.68;;;2.22;;
78004;SDS011;67209;51.698;-0.292;2023-06-04T08:05:35;5.68;;;1.85;;
78004;SDS011;67209;51.698;-0.292;2023-06-04T08:08:01;5.88;;;1.85;;
78004;SDS011;67209;51.698;-0.292;2023-06-04T08:10:28;6.47;;;2.38;;
78004;SDS011;67209;51.698;-0.292;2023-06-04T08:12:54;7.20;;;2.28;;
78004;SDS011;67209;51.698;-0.292;2023-06-04T08:15:21;4.88;;;2.00;;
78004;SDS011;67209;51.698;-0.292;2023-06-04T08:17:47;5.00;;;1.80;;
78004;SDS011;67209;51.698;-0.292;2023-06-04T08:20:13;5.05;;;1.65;;
78004;SDS011;67209;51.698;-0.292;2023-06-04T08:22:39;3.95;;;1.58;;
78004;SDS011;67209;51.698;-0.292;2023-06-04T08:25:06;7.22;;;2.28;;
78004;SDS011;67209;51.698;-0.292;2023-06-04T08:27:33;6.45;;;2.30;;
78004;SDS011;67209;51.698;-0.292;2023-06-04T08:29:59;6.25;;;2.25;;
78004;SDS011;67209;51.698;-0.292;2023-06-04T08:32:26;6.43;;;2.17;;
78004;SDS011;67209;51.698;-0.292;2023-06-04T08:34:52;4.15;;;1.67;;
78004;SDS011;67209;51.698;-0.292;2023-06-04T08:37:18;4.93;;;2.05;;
78004;SDS011;67209;51.698;-0.292;2023-06-04T08:39:45;7.05;;;1.77;;
78004;SDS011;67209;51.698;-0.292;2023-06-04T08:42:15;6.47;;;1.65;;
78004;SDS011;67209;51.698;-0.292;2023-06-04T08:44:44;5.10;;;1.92;;
78004;SDS011;67209;51.698;-0.292;2023-06-04T08:47:11;6.72;;;1.80;;
78004;SDS011;67209;51.698;-0.292;2023-06-04T08:49:39;4.68;;;1.80;;
78004;SDS011;67209;51.698;-0.292;2023-06-04T08:52:06;6.75;;;2.03;;
78004;SDS011;67209;51.698;-0.292;2023-06-04T08:54:32;3.78;;;1.40;;
78004;SDS011;67209;51.698;-0.292;2023-06-04T08:56:58;5.63;;;1.75;;
78004;SDS011;67209;51.698;-0.292;2023-06-04T08:59:27;6.45;;;1.98;;
78004;SDS011;67209;51.698;-0.292;2023-06-04T09:01:53;5.47;;;1.92;;
78004;SDS011;67209;51.698;-0.292;2023-06-04T09:04:19;9.32;;;2.33;;
78004;SDS011;67209;51.698;-0.292;2023-06-04T09:06:46;5.68;;;1.80;;
78004;SDS011;67209;51.698;-0.292;2023-06-04T09:09:12;8.65;;;2.08;;
78004;SDS011;67209;51.698;-0.292;2023-06-04T09:11:53;4.80;;;1.70;;
78004;SDS011;67209;51.698;-0.292;2023-06-04T09:14:19;6.03;;;2.08;;
78004;SDS011;67209;51.698;-0.292;2023-06-04T09:16:52;5.78;;;2.20;;
78004;SDS011;67209;51.698;-0.292;2023-06-04T09:19:20;5.72;;;1.98;;
78004;SDS011;67209;51.698;-0.292;2023-06-04T09:21:48;5.95;;;1.90;;
78004;SDS011;67209;51.698;-0.292;2023-06-04T09:24:14;7.30;;;2.15;;
78004;SDS011;67209;51.698;-0.292;2023-06-04T09:26:39;3.60;;;1.40;;
78004;SDS011;67209;51.698;-0.292;2023-06-04T09:29:05;3.63;;;1.58;;
78004;SDS011;67209;51.698;-0.292;2023-06-04T09:31:32;5.97;;;1.80;;
78004;SDS011;67209;51.698;-0.292;2023-06-04T09:34:02;4.30;;;1.80;;
78004;SDS011;67209;51.698;-0.292;2023-06-04T09:36:35;3.90;;;1.67;;
78004;SDS011;67209;51.698;-0.292;2023-06-04T09:39:02;5.55;;;2.20;;
78004;SDS011;67209;51.698;-0.292;2023-06-04T09:41:30;4.82;;;1.73;;
78004;SDS011;67209;51.698;-0.292;2023-06-04T09:44:02;5.65;;;2.17;;
78004;SDS011;67209;51.698;-0.292;2023-06-04T09:46:29;12.27;;;3.47;;
78004;SDS011;67209;51.698;-0.292;2023-06-04T09:49:14;4.18;;;1.58;;
78004;SDS011;67209;51.698;-0.292;2023-06-04T09:51:46;6.68;;;2.15;;
78004;SDS011;67209;51.698;-0.292;2023-06-04T09:54:12;8.05;;;2.83;;
78004;SDS011;67209;51.698;-0.292;2023-06-04T09:56:41;4.32;;;1.75;;
78004;SDS011;67209;51.698;-0.292;2023-06-04T09:59:10;7.03;;;2.28;;
78004;SDS011;67209;51.698;-0.292;2023-06-04T10:01:39;4.90;;;1.80;;
78004;SDS011;67209;51.698;-0.292;2023-06-04T10:04:08;10.02;;;2.88;;
78004;SDS011;67209;51.698;-0.292;2023-06-04T10:06:36;5.57;;;1.70;;
78004;SDS011;67209;51.698;-0.292;2023-06-04T10:09:04;7.28;;;2.50;;
78004;SDS011;67209;51.698;-0.292;2023-06-04T10:11:33;5.55;;;2.03;;
78004;SDS011;67209;51.698;-0.292;2023-06-04T10:14:02;5.95;;;1.85;;
78004;SDS011;67209;51.698;-0.292;2023-06-04T10:16:31;5.03;;;1.75;;
78004;SDS011;67209;51.698;-0.292;2023-06-04T10:18:58;5.45;;;2.05;;
78004;SDS011;67209;51.698;-0.292;2023-06-04T10:21:25;3.65;;;1.48;;
78004;SDS011;67209;51.698;-0.292;2023-06-04T10:23:52;4.20;;;1.30;;
78004;SDS011;67209;51.698;-0.292;2023-06-04T10:26:18;5.43;;;1.90;;
78004;SDS011;67209;51.698;-0.292;2023-06-04T10:28:45;3.67;;;1.80;;
78004;SDS011;67209;51.698;-0.292;2023-06-04T10:31:11;3.70;;;1.73;;
78004;SDS011;67209;51.698;-0.292;2023-06-04T10:33:38;5.63;;;1.92;;
78004;SDS011;67209;51.698;-0.292;2023-06-04T10:36:17;3.35;;;1.60;;
78004;SDS011;67209;51.698;-0.292;2023-06-04T10:38:51;5.90;;;1.92;;
78004;SDS011;67209;51.698;-0.292;2023-06-04T10:41:17;6.30;;;2.25;;
78004;SDS011;67209;51.698;-0.292;2023-06-04T10:43:47;4.68;;;2.00;;
78004;SDS011;67209;51.698;-0.292;2023-06-04T10:46:15;8.50;;;3.00;;
78004;SDS011;67209;51.698;-0.292;2023-06-04T10:48:51;8.35;;;2.13;;
78004;SDS011;67209;51.698;-0.292;2023-06-04T10:51:30;6.70;;;2.22;;
78004;SDS011;67209;51.698;-0.292;2023-06-04T10:53:57;8.18;;;2.40;;
78004;SDS011;67209;51.698;-0.292;2023-06-04T10:56:28;9.38;;;2.80;;
78004;SDS011;67209;51.698;-0.292;2023-06-04T10:58:55;6.55;;;2.42;;
78004;SDS011;67209;51.698;-0.292;2023-06-04T11:01:27;7.47;;;2.95;;
78004;SDS011;67209;51.698;-0.292;2023-06-04T11:03:57;7.45;;;2.08;;
78004;SDS011;67209;51.698;-0.292;2023-06-04T11:06:23;3.60;;;1.40;;
78004;SDS011;67209;51.698;-0.292;2023-06-04T11:09:14;7.20;;;2.17;;
78004;SDS011;67209;51.698;-0.292;2023-06-04T11:11:41;7.72;;;2.72;;
78004;SDS011;67209;51.698;-0.292;2023-06-04T11:14:08;8.02;;;2.90;;
78004;SDS011;67209;51.698;-0.292;2023-06-04T11:16:34;6.32;;;1.83;;
78004;SDS011;67209;51.698;-0.292;2023-06-04T11:19:03;10.10;;;2.33;;
78004;SDS011;67209;51.698;-0.292;2023-06-04T11:21:29;5.78;;;1.95;;
78004;SDS011;67209;51.698;-0.292;2023-06-04T11:23:59;4.72;;;2.15;;
78004;SDS011;67209;51.698;-0.292;2023-06-04T11:26:31;3.85;;;2.00;;
78004;SDS011;67209;51.698;-0.292;2023-06-04T11:28:58;7.15;;;2.53;;
78004;SDS011;67209;51.698;-0.292;2023-06-04T11:31:24;6.18;;;2.28;;
78004;SDS011;67209;51.698;-0.292;2023-06-04T11:33:50;5.00;;;1.90;;
78004;SDS011;67209;51.698;-0.292;2023-06-04T11:36:29;7.30;;;1.98;;
78004;SDS011;67209;51.698;-0.292;2023-06-04T11:38:58;4.10;;;1.75;;
78004;SDS011;67209;51.698;-0.292;2023-06-04T11:41:27;5.53;;;2.13;;
78004;SDS011;67209;51.698;-0.292;2023-06-04T11:43:55;6.82;;;2.00;;
78004;SDS011;67209;51.698;-0.292;2023-06-04T11:46:21;4.57;;;2.10;;
78004;SDS011;67209;51.698;-0.292;2023-06-04T11:48:49;7.80;;;2.10;;
78004;SDS011;67209;51.698;-0.292;2023-06-04T11:51:16;5.78;;;2.20;;
78004;SDS011;67209;51.698;-0.292;2023-06-04T11:53:42;5.97;;;2.30;;
78004;SDS011;67209;51.698;-0.292;2023-06-04T11:56:08;3.83;;;1.67;;
78004;SDS011;67209;51.698;-0.292;2023-06-04T11:58:34;7.07;;;2.05;;
78004;SDS011;67209;51.698;-0.292;2023-06-04T12:01:00;4.55;;;1.90;;
78004;SDS011;67209;51.698;-0.292;2023-06-04T12:06:15;4.63;;;1.90;;
78004;SDS011;67209;51.698;-0.292;2023-06-04T12:09:19;7.22;;;2.35;;
78004;SDS011;67209;51.698;-0.292;2023-06-04T12:11:34;9.02;;;2.42;;
78004;SDS011;67209;51.698;-0.292;2023-06-04T12:14:04;3.83;;;2.00;;
78004;SDS011;67209;51.698;-0.292;2023-06-04T12:16:30;4.55;;;1.90;;
78004;SDS011;67209;51.698;-0.292;2023-06-04T12:19:10;4.93;;;1.60;;
78004;SDS011;67209;51.698;-0.292;2023-06-04T12:21:36;7.15;;;2.30;;
78004;SDS011;67209;51.698;-0.292;2023-06-04T12:24:12;5.63;;;2.10;;
78004;SDS011;67209;51.698;-0.292;2023-06-04T12:26:39;6.68;;;1.98;;
78004;SDS011;67209;51.698;-0.292;2023-06-04T12:29:12;5.35;;;1.65;;
78004;SDS011;67209;51.698;-0.292;2023-06-04T12:31:39;2.90;;;1.30;;
78004;SDS011;67209;51.698;-0.292;2023-06-04T12:34:05;5.55;;;1.58;;
78004;SDS011;67209;51.698;-0.292;2023-06-04T12:36:31;4.32;;;1.70;;
78004;SDS011;67209;51.698;-0.292;2023-06-04T12:39:00;4.43;;;1.80;;
78004;SDS011;67209;51.698;-0.292;2023-06-04T12:41:27;4.57;;;1.80;;
78004;SDS011;67209;51.698;-0.292;2023-06-04T12:43:53;3.42;;;1.50;;
78004;SDS011;67209;51.698;-0.292;2023-06-04T12:46:20;3.28;;;1.30;;
78004;SDS011;67209;51.698;-0.292;2023-06-04T12:48:46;3.78;;;1.80;;
78004;SDS011;67209;51.698;-0.292;2023-06-04T12:51:13;4.93;;;1.70;;
78004;SDS011;67209;51.698;-0.292;2023-06-04T12:53:39;3.20;;;1.58;;
78004;SDS011;67209;51.698;-0.292;2023-06-04T12:56:06;6.72;;;2.00;;
78004;SDS011;67209;51.698;-0.292;2023-06-04T12:58:32;5.65;;;1.60;;
78004;SDS011;67209;51.698;-0.292;2023-06-04T13:00:58;4.53;;;1.67;;
78004;SDS011;67209;51.698;-0.292;2023-06-04T13:03:25;5.13;;;1.92;;
78004;SDS011;67209;51.698;-0.292;2023-06-04T13:05:51;7.32;;;2.83;;
78004;SDS011;67209;51.698;-0.292;2023-06-04T13:08:18;2.55;;;1.17;;
78004;SDS011;67209;51.698;-0.292;2023-06-04T13:10:45;3.15;;;1.27;;
78004;SDS011;67209;51.698;-0.292;2023-06-04T13:13:11;6.03;;;2.40;;
78004;SDS011;67209;51.698;-0.292;2023-06-04T13:15:40;4.72;;;1.70;;
78004;SDS011;67209;51.698;-0.292;2023-06-04T13:18:06;4.20;;;1.80;;
78004;SDS011;67209;51.698;-0.292;2023-06-04T13:20:32;5.38;;;1.80;;
78004;SDS011;67209;51.698;-0.292;2023-06-04T13:22:58;4.63;;;1.83;;
78004;SDS011;67209;51.698;-0.292;2023-06-04T13:25:24;5.20;;;1.80;;
78004;SDS011;67209;51.698;-0.292;2023-06-04T13:27:50;3.63;;;1.63;;
78004;SDS011;67209;51.698;-0.292;2023-06-04T13:30:16;5.93;;;2.20;;
78004;SDS011;67209;51.698;-0.292;2023-06-04T13:32:42;4.50;;;1.83;;
78004;SDS011;67209;51.698;-0.292;2023-06-04T13:35:08;4.20;;;1.75;;
78004;SDS011;67209;51.698;-0.292;2023-06-04T13:37:34;5.57;;;2.63;;
78004;SDS011;67209;51.698;-0.292;2023-06-04T13:40:00;7.30;;;2.95;;
78004;SDS011;67209;51.698;-0.292;2023-06-04T13:42:26;17.80;;;8.82;;
78004;SDS011;67209;51.698;-0.292;2023-06-04T13:44:52;3.35;;;1.65;;
78004;SDS011;67209;51.698;-0.292;2023-06-04T13:47:18;10.20;;;4.13;;
78004;SDS011;67209;51.698;-0.292;2023-06-04T13:49:46;7.38;;;3.28;;
78004;SDS011;67209;51.698;-0.292;2023-06-04T13:52:12;5.32;;;2.70;;
78004;SDS011;67209;51.698;-0.292;2023-06-04T13:54:38;3.13;;;1.77;;
78004;SDS011;67209;51.698;-0.292;2023-06-04T13:57:04;4.00;;;1.67;;
78004;SDS011;67209;51.698;-0.292;2023-06-04T13:59:32;7.45;;;2.80;;
78004;SDS011;67209;51.698;-0.292;2023-06-04T14:01:58;26.38;;;12.25;;
78004;SDS011;67209;51.698;-0.292;2023-06-04T14:04:24;4.47;;;2.33;;
78004;SDS011;67209;51.698;-0.292;2023-06-04T14:06:50;5.80;;;2.58;;
78004;SDS011;67209;51.698;-0.292;2023-06-04T14:09:16;5.03;;;2.10;;
78004;SDS011;67209;51.698;-0.292;2023-06-04T14:11:42;4.68;;;2.03;;
78004;SDS011;67209;51.698;-0.292;2023-06-04T14:14:08;8.45;;;2.70;;
78004;SDS011;67209;51.698;-0.292;2023-06-04T14:16:35;15.63;;;7.07;;
78004;SDS011;67209;51.698;-0.292;2023-06-04T14:19:01;9.25;;;4.15;;
78004;SDS011;67209;51.698;-0.292;2023-06-04T14:21:27;10.07;;;4.13;;
78004;SDS011;67209;51.698;-0.292;2023-06-04T14:23:53;11.40;;;4.93;;
78004;SDS011;67209;51.698;-0.292;2023-06-04T14:26:19;6.72;;;3.28;;
78004;SDS011;67209;51.698;-0.292;2023-06-04T14:28:45;4.53;;;1.75;;
78004;SDS011;67209;51.698;-0.292;2023-06-04T14:31:11;3.95;;;1.85;;
78004;SDS011;67209;51.698;-0.292;2023-06-04T14:33:37;6.80;;;2.60;;
78004;SDS011;67209;51.698;-0.292;2023-06-04T14:36:04;3.92;;;2.00;;
78004;SDS011;67209;51.698;-0.292;2023-06-04T14:38:30;3.97;;;2.00;;
78004;SDS011;67209;51.698;-0.292;2023-06-04T14:40:56;6.00;;;2.00;;